This demonstration page uses our WeatherBlox Daily Observations layout. Learn more.

38.88101, -77.10428

Hourly Observations for October 22, 2017

Temp ( °F °C ) Dew Point ( °F °C ) Humidity (%) Winds ( mph kmh ) Pressure ( in mb ) Visibility ( mi km ) Precip ( " mm )
12:52 am 00:52 Mostly Cloudy 59 15 51 10.6 75 75 Calm 30.35 1028 10 16.0934 0 0
1:52 am 01:52 Mostly Cloudy 58 14.4 51 10.6 78 78 Calm 30.35 1028 10 16.0934 0 0
2:52 am 02:52 Mostly Cloudy 58 14.4 51 10.6 78 78 Calm 30.35 1028 10 16.0934 0 0
3:52 am 03:52 Mostly Cloudy 56 13.3 51 10.6 84 84 Calm 30.35 1028 10 16.0934 0 0
4:52 am 04:52 Partly Cloudy 56 13.3 50 10 81 81 NE 5 7 30.35 1028 10 16.0934 0 0
5:52 am 05:52 Mostly Cloudy 54 12.2 50 10 87 87 NE 5 7 30.37 1029 10 16.0934 0 0
6:52 am 06:52 Mostly Cloudy 55 12.8 51 10.6 87 87 NNE 3 6 30.38 1029 10 16.0934 0 0
7:52 am 07:52 Mostly Cloudy 55 12.8 51 10.6 87 87 ENE 6 9 30.39 1029 10 16.0934 0 0
8:52 am 08:52 Mostly Cloudy 57 13.9 53 11.7 87 87 Calm 30.4 1030 10 16.0934 0 0
9:52 am 09:52 Partly Cloudy 61 16.1 55 12.8 81 81 Calm 30.4 1030 10 16.0934 0 0
10:52 am 10:52 Partly Cloudy 66 18.9 57 13.9 73 73 Calm 30.4 1029 10 16.0934 0 0
11:52 am 11:52 Mostly Cloudy 71 21.7 55 12.8 57 57 Calm 30.38 1029 10 16.0934 0 0
12:52 pm 12:52 Mostly Cloudy 75 23.9 55 12.8 50 50 SSW 7 11 30.37 1028 10 16.0934 0 0
1:52 pm 13:52 Mostly Cloudy 76 24.4 55 12.8 48 48 S 7 11 30.35 1028 10 16.0934 0 0
2:52 pm 14:52 Mostly Cloudy 76 24.4 55 12.8 48 48 S 8 13 30.32 1027 10 16.0934 0 0
3:52 pm 15:52 Mostly Cloudy 76 24.4 54 12.2 47 47 S 8 13 30.31 1026 10 16.0934 0 0
4:52 pm 16:52 Mostly Cloudy 75 23.9 56 13.3 52 52 SE 6 9 30.3 1026 10 16.0934 0 0
5:52 pm 17:52 Mostly Cloudy 73 22.8 55 12.8 53 53 SE 13 20 30.3 1026 10 16.0934 0 0
6:52 pm 18:52 Mostly Cloudy 70 21.1 47 8.3 44 44 SE 9 15 30.3 1026 10 16.0934 0 0
7:52 pm 19:52 Partly Cloudy 66 18.9 47 8.3 50 50 SSE 8 13 30.32 1027 10 16.0934 0 0
8:52 pm 20:52 Mostly Cloudy 66 18.9 54 12.2 65 65 S 9 15 30.32 1027 10 16.0934 0 0
9:52 pm 21:52 Mostly Cloudy 65 18.3 55 12.8 70 70 SSW 5 7 30.33 1027 10 16.0934 0 0
10:52 pm 22:52 Mostly Cloudy 64 17.8 58 14.4 81 81 SSE 7 11 30.32 1027 10 16.0934 0 0
11:52 pm 23:52 Mostly Cloudy 64 17.8 60 15.6 87 87 S 8 13 30.3 1026 10 16.0934 0 0

Powered by AerisWeather